sensor_id;sensor_type;location;lat;lon;timestamp;pressure;altitude;pressure_sealevel;temperature;humidity
36138;BME280;67787;50.074;21.904;2023-09-08T00:05:03;99985.30;;;15.16;67.22
36138;BME280;67787;50.074;21.904;2023-09-08T00:08:15;99983.95;;;15.14;67.13
36138;BME280;67787;50.074;21.904;2023-09-08T00:11:32;99980.19;;;15.12;67.06
36138;BME280;67787;50.074;21.904;2023-09-08T00:14:42;99980.42;;;15.12;67.33
36138;BME280;67787;50.074;21.904;2023-09-08T00:17:47;99982.39;;;15.09;67.22
36138;BME280;67787;50.074;21.904;2023-09-08T00:20:53;99984.02;;;15.09;67.25
36138;BME280;67787;50.074;21.904;2023-09-08T00:23:44;99984.90;;;15.09;67.27
36138;BME280;67787;50.074;21.904;2023-09-08T00:30:02;99987.91;;;15.00;67.36
36138;BME280;67787;50.074;21.904;2023-09-08T00:33:38;99992.21;;;14.98;67.43
36138;BME280;67787;50.074;21.904;2023-09-08T00:36:51;99995.62;;;14.97;67.45
36138;BME280;67787;50.074;21.904;2023-09-08T00:40:07;99997.91;;;14.98;67.44
36138;BME280;67787;50.074;21.904;2023-09-08T00:43:08;99996.66;;;14.98;67.42
36138;BME280;67787;50.074;21.904;2023-09-08T00:46:03;99990.41;;;14.98;67.49
36138;BME280;67787;50.074;21.904;2023-09-08T00:49:13;99989.30;;;14.96;67.47
36138;BME280;67787;50.074;21.904;2023-09-08T00:52:36;99986.04;;;14.94;67.36
36138;BME280;67787;50.074;21.904;2023-09-08T00:55:40;99989.17;;;14.91;67.37
36138;BME280;67787;50.074;21.904;2023-09-08T00:58:32;99984.70;;;14.88;67.48
36138;BME280;67787;50.074;21.904;2023-09-08T01:01:52;99986.44;;;14.84;67.43
36138;BME280;67787;50.074;21.904;2023-09-08T01:07:48;99977.42;;;14.78;67.54
36138;BME280;67787;50.074;21.904;2023-09-08T01:11:09;99976.42;;;14.75;67.61
36138;BME280;67787;50.074;21.904;2023-09-08T01:14:43;99971.18;;;14.76;67.61
36138;BME280;67787;50.074;21.904;2023-09-08T01:17:58;99974.70;;;14.74;67.62
36138;BME280;67787;50.074;21.904;2023-09-08T01:27:48;99976.22;;;14.67;67.64
36138;BME280;67787;50.074;21.904;2023-09-08T01:31:08;99971.63;;;14.67;67.74
36138;BME280;67787;50.074;21.904;2023-09-08T01:34:00;99969.00;;;14.67;67.67
36138;BME280;67787;50.074;21.904;2023-09-08T01:37:08;99971.26;;;14.65;67.75
36138;BME280;67787;50.074;21.904;2023-09-08T01:40:23;99975.98;;;14.66;67.72
36138;BME280;67787;50.074;21.904;2023-09-08T01:43:39;99973.45;;;14.64;67.79
36138;BME280;67787;50.074;21.904;2023-09-08T01:46:59;99972.56;;;14.62;67.68
36138;BME280;67787;50.074;21.904;2023-09-08T01:50:10;99972.57;;;14.59;67.73
36138;BME280;67787;50.074;21.904;2023-09-08T01:56:26;99971.06;;;14.53;67.69
36138;BME280;67787;50.074;21.904;2023-09-08T01:59:41;99972.56;;;14.47;67.70
36138;BME280;67787;50.074;21.904;2023-09-08T02:03:11;99973.37;;;14.46;67.79
36138;BME280;67787;50.074;21.904;2023-09-08T02:06:29;99972.46;;;14.44;67.78
36138;BME280;67787;50.074;21.904;2023-09-08T02:09:19;99971.59;;;14.41;67.69
36138;BME280;67787;50.074;21.904;2023-09-08T02:12:09;99973.61;;;14.38;67.84
36138;BME280;67787;50.074;21.904;2023-09-08T02:15:26;99975.28;;;14.37;67.82
36138;BME280;67787;50.074;21.904;2023-09-08T02:21:37;99973.05;;;14.36;67.95
36138;BME280;67787;50.074;21.904;2023-09-08T02:24:30;99967.99;;;14.34;67.89
36138;BME280;67787;50.074;21.904;2023-09-08T02:27:33;99964.08;;;14.29;67.82
36138;BME280;67787;50.074;21.904;2023-09-08T02:30:44;99965.78;;;14.28;67.89
36138;BME280;67787;50.074;21.904;2023-09-08T02:33:45;99964.07;;;14.24;67.97
36138;BME280;67787;50.074;21.904;2023-09-08T02:36:56;99964.80;;;14.24;67.97
36138;BME280;67787;50.074;21.904;2023-09-08T02:40:08;99964.88;;;14.23;68.01
36138;BME280;67787;50.074;21.904;2023-09-08T02:43:31;99960.77;;;14.21;67.89
36138;BME280;67787;50.074;21.904;2023-09-08T02:46:36;99957.45;;;14.18;67.93
36138;BME280;67787;50.074;21.904;2023-09-08T02:49:23;99954.30;;;14.14;67.92
36138;BME280;67787;50.074;21.904;2023-09-08T02:52:21;99955.33;;;14.12;68.00
36138;BME280;67787;50.074;21.904;2023-09-08T02:55:52;99956.88;;;14.10;67.90
36138;BME280;67787;50.074;21.904;2023-09-08T02:59:51;99945.20;;;14.06;67.94
36138;BME280;67787;50.074;21.904;2023-09-08T03:02:54;99942.22;;;14.01;67.97
36138;BME280;67787;50.074;21.904;2023-09-08T03:06:09;99945.89;;;14.00;68.03
36138;BME280;67787;50.074;21.904;2023-09-08T03:09:43;99945.33;;;13.97;68.03
36138;BME280;67787;50.074;21.904;2023-09-08T03:13:31;99947.15;;;13.94;68.08
36138;BME280;67787;50.074;21.904;2023-09-08T03:17:01;99947.41;;;13.93;68.13
36138;BME280;67787;50.074;21.904;2023-09-08T03:23:55;99940.44;;;13.91;68.00
36138;BME280;67787;50.074;21.904;2023-09-08T03:27:20;99940.41;;;13.89;68.07
36138;BME280;67787;50.074;21.904;2023-09-08T03:30:41;99939.46;;;13.88;68.09
36138;BME280;67787;50.074;21.904;2023-09-08T03:33:53;99935.83;;;13.86;68.11
36138;BME280;67787;50.074;21.904;2023-09-08T03:36:53;99936.63;;;13.85;68.09
36138;BME280;67787;50.074;21.904;2023-09-08T03:39:40;99940.15;;;13.83;68.13
36138;BME280;67787;50.074;21.904;2023-09-08T03:42:50;99935.92;;;13.82;68.16
36138;BME280;67787;50.074;21.904;2023-09-08T04:01:22;99937.10;;;13.73;68.17
36138;BME280;67787;50.074;21.904;2023-09-08T04:03:53;99932.41;;;13.72;68.30
36138;BME280;67787;50.074;21.904;2023-09-08T04:06:21;99930.98;;;13.72;68.17
36138;BME280;67787;50.074;21.904;2023-09-08T04:08:52;99932.13;;;13.70;68.22
36138;BME280;67787;50.074;21.904;2023-09-08T04:11:20;99932.59;;;13.69;68.24
36138;BME280;67787;50.074;21.904;2023-09-08T04:13:54;99937.27;;;13.68;68.32
36138;BME280;67787;50.074;21.904;2023-09-08T04:16:22;99936.44;;;13.67;68.36
36138;BME280;67787;50.074;21.904;2023-09-08T04:18:50;99934.69;;;13.67;68.31
36138;BME280;67787;50.074;21.904;2023-09-08T04:21:22;99935.04;;;13.65;68.26
36138;BME280;67787;50.074;21.904;2023-09-08T04:23:53;99932.41;;;13.62;68.40
36138;BME280;67787;50.074;21.904;2023-09-08T04:30:21;99934.36;;;13.62;68.55
36138;BME280;67787;50.074;21.904;2023-09-08T04:32:57;99935.02;;;13.65;68.60
36138;BME280;67787;50.074;21.904;2023-09-08T04:35:26;99931.42;;;13.68;68.58
36138;BME280;67787;50.074;21.904;2023-09-08T04:38:50;99930.62;;;13.69;68.57
36138;BME280;67787;50.074;21.904;2023-09-08T04:42:37;99925.83;;;13.69;68.59
36138;BME280;67787;50.074;21.904;2023-09-08T04:45:27;99925.41;;;13.67;68.60
36138;BME280;67787;50.074;21.904;2023-09-08T04:47:58;99923.04;;;13.67;68.67
36138;BME280;67787;50.074;21.904;2023-09-08T04:50:26;99923.30;;;13.72;68.76
36138;BME280;67787;50.074;21.904;2023-09-08T04:52:58;99923.64;;;13.74;68.84
36138;BME280;67787;50.074;21.904;2023-09-08T04:55:28;99922.00;;;13.80;68.81
36138;BME280;67787;50.074;21.904;2023-09-08T04:58:08;99923.88;;;13.86;68.81
36138;BME280;67787;50.074;21.904;2023-09-08T05:00:41;99923.35;;;13.86;68.89
36138;BME280;67787;50.074;21.904;2023-09-08T05:03:31;99926.02;;;13.88;68.97
36138;BME280;67787;50.074;21.904;2023-09-08T05:06:08;99925.85;;;13.93;69.01
36138;BME280;67787;50.074;21.904;2023-09-08T05:09:09;99926.26;;;13.97;68.99
36138;BME280;67787;50.074;21.904;2023-09-08T05:12:10;99923.02;;;14.00;69.08
36138;BME280;67787;50.074;21.904;2023-09-08T05:19:44;99925.67;;;14.15;69.27
36138;BME280;67787;50.074;21.904;2023-09-08T05:22:19;99928.66;;;14.23;69.34
36138;BME280;67787;50.074;21.904;2023-09-08T05:24:53;99932.23;;;14.30;69.37
36138;BME280;67787;50.074;21.904;2023-09-08T05:27:25;99936.02;;;14.37;69.38
36138;BME280;67787;50.074;21.904;2023-09-08T05:29:53;99933.21;;;14.44;69.47
36138;BME280;67787;50.074;21.904;2023-09-08T05:32:23;99932.02;;;14.50;69.45
36138;BME280;67787;50.074;21.904;2023-09-08T05:35:17;99929.77;;;14.57;69.51
36138;BME280;67787;50.074;21.904;2023-09-08T05:37:48;99930.36;;;14.58;69.50
36138;BME280;67787;50.074;21.904;2023-09-08T05:40:19;99929.55;;;14.59;69.63
36138;BME280;67787;50.074;21.904;2023-09-08T05:43:15;99925.88;;;14.63;69.61
36138;BME280;67787;50.074;21.904;2023-09-08T05:46:13;99927.50;;;14.70;69.86
36138;BME280;67787;50.074;21.904;2023-09-08T05:49:02;99923.28;;;14.79;69.86
36138;BME280;67787;50.074;21.904;2023-09-08T05:51:32;99924.05;;;14.88;69.96
36138;BME280;67787;50.074;21.904;2023-09-08T05:54:04;99925.59;;;14.95;69.99
36138;BME280;67787;50.074;21.904;2023-09-08T05:56:33;99926.59;;;15.04;70.11
36138;BME280;67787;50.074;21.904;2023-09-08T05:59:07;99928.40;;;15.12;70.19
36138;BME280;67787;50.074;21.904;2023-09-08T06:01:38;99931.83;;;15.21;70.24
36138;BME280;67787;50.074;21.904;2023-09-08T06:04:12;99933.98;;;15.30;70.32
36138;BME280;67787;50.074;21.904;2023-09-08T06:06:42;99934.20;;;15.39;70.33
36138;BME280;67787;50.074;21.904;2023-09-08T06:09:13;99936.48;;;15.46;70.40
36138;BME280;67787;50.074;21.904;2023-09-08T06:11:44;99932.64;;;15.54;70.39
36138;BME280;67787;50.074;21.904;2023-09-08T06:14:17;99938.22;;;15.63;70.46
36138;BME280;67787;50.074;21.904;2023-09-08T06:16:46;99936.69;;;15.71;70.50
36138;BME280;67787;50.074;21.904;2023-09-08T06:19:17;99940.03;;;15.78;70.45
36138;BME280;67787;50.074;21.904;2023-09-08T06:21:50;99938.96;;;15.85;70.55
36138;BME280;67787;50.074;21.904;2023-09-08T06:24:37;99937.61;;;15.93;70.64
36138;BME280;67787;50.074;21.904;2023-09-08T06:27:09;99937.73;;;16.01;70.52
36138;BME280;67787;50.074;21.904;2023-09-08T06:29:39;99939.89;;;16.07;70.55
36138;BME280;67787;50.074;21.904;2023-09-08T06:32:08;99937.85;;;16.15;70.55
36138;BME280;67787;50.074;21.904;2023-09-08T06:34:38;99938.52;;;16.19;70.64
36138;BME280;67787;50.074;21.904;2023-09-08T06:37:53;99944.73;;;16.27;70.67
36138;BME280;67787;50.074;21.904;2023-09-08T06:40:45;99946.46;;;16.34;70.68
36138;BME280;67787;50.074;21.904;2023-09-08T06:43:37;99942.65;;;16.41;70.69
36138;BME280;67787;50.074;21.904;2023-09-08T06:47:02;99946.23;;;16.50;70.66
36138;BME280;67787;50.074;21.904;2023-09-08T06:49:37;99939.30;;;16.56;70.68
36138;BME280;67787;50.074;21.904;2023-09-08T06:52:10;99938.89;;;16.63;71.00
36138;BME280;67787;50.074;21.904;2023-09-08T06:54:40;99939.90;;;16.72;71.06
36138;BME280;67787;50.074;21.904;2023-09-08T06:57:11;99935.28;;;16.78;70.79
36138;BME280;67787;50.074;21.904;2023-09-08T06:59:41;99935.05;;;16.85;70.96
36138;BME280;67787;50.074;21.904;2023-09-08T07:02:13;99935.31;;;16.92;70.98
36138;BME280;67787;50.074;21.904;2023-09-08T07:04:47;99931.69;;;17.00;71.08
36138;BME280;67787;50.074;21.904;2023-09-08T07:07:19;99934.65;;;17.07;70.92
36138;BME280;67787;50.074;21.904;2023-09-08T07:09:48;99933.52;;;17.14;71.08
36138;BME280;67787;50.074;21.904;2023-09-08T07:12:19;99934.75;;;17.20;71.06
36138;BME280;67787;50.074;21.904;2023-09-08T07:14:49;99931.61;;;17.28;71.16
36138;BME280;67787;50.074;21.904;2023-09-08T07:17:17;99929.94;;;17.35;71.07
36138;BME280;67787;50.074;21.904;2023-09-08T07:19:45;99929.55;;;17.41;71.14
36138;BME280;67787;50.074;21.904;2023-09-08T07:22:16;99929.36;;;17.47;71.08
36138;BME280;67787;50.074;21.904;2023-09-08T07:24:45;99929.33;;;17.54;71.11
36138;BME280;67787;50.074;21.904;2023-09-08T07:27:16;99929.27;;;17.61;71.13
36138;BME280;67787;50.074;21.904;2023-09-08T07:29:46;99928.02;;;17.67;70.96
36138;BME280;67787;50.074;21.904;2023-09-08T07:32:17;99924.72;;;17.74;71.03
36138;BME280;67787;50.074;21.904;2023-09-08T07:34:45;99921.63;;;17.80;71.13
36138;BME280;67787;50.074;21.904;2023-09-08T07:37:23;99920.69;;;17.87;71.13
36138;BME280;67787;50.074;21.904;2023-09-08T07:39:53;99918.40;;;17.94;71.29
36138;BME280;67787;50.074;21.904;2023-09-08T07:42:20;99923.48;;;18.06;71.55
36138;BME280;67787;50.074;21.904;2023-09-08T07:44:51;99919.19;;;18.16;71.17
36138;BME280;67787;50.074;21.904;2023-09-08T07:47:41;99921.33;;;18.22;71.19
36138;BME280;67787;50.074;21.904;2023-09-08T07:52:47;99922.48;;;18.33;71.09
36138;BME280;67787;50.074;21.904;2023-09-08T07:55:18;99926.02;;;18.40;71.03
36138;BME280;67787;50.074;21.904;2023-09-08T07:57:46;99923.81;;;18.46;71.00
36138;BME280;67787;50.074;21.904;2023-09-08T08:00:15;99920.86;;;18.53;71.03
36138;BME280;67787;50.074;21.904;2023-09-08T08:02:45;99921.08;;;18.62;71.06
36138;BME280;67787;50.074;21.904;2023-09-08T08:05:14;99919.48;;;18.70;70.92
36138;BME280;67787;50.074;21.904;2023-09-08T08:07:43;99918.77;;;18.78;70.95
36138;BME280;67787;50.074;21.904;2023-09-08T08:10:12;99923.13;;;18.83;70.97
36138;BME280;67787;50.074;21.904;2023-09-08T08:12:42;99925.64;;;18.89;70.84
36138;BME280;67787;50.074;21.904;2023-09-08T08:15:10;99927.56;;;18.95;71.00
36138;BME280;67787;50.074;21.904;2023-09-08T08:17:40;99926.76;;;19.04;71.00
36138;BME280;67787;50.074;21.904;2023-09-08T08:20:10;99926.63;;;19.11;70.92
36138;BME280;67787;50.074;21.904;2023-09-08T08:22:46;99929.96;;;19.19;70.83
36138;BME280;67787;50.074;21.904;2023-09-08T08:25:14;99925.86;;;19.27;70.93
36138;BME280;67787;50.074;21.904;2023-09-08T08:27:43;99920.20;;;19.37;70.91
36138;BME280;67787;50.074;21.904;2023-09-08T08:30:12;99918.56;;;19.41;70.76
36138;BME280;67787;50.074;21.904;2023-09-08T08:32:41;99916.05;;;19.47;70.72
36138;BME280;67787;50.074;21.904;2023-09-08T08:35:09;99913.73;;;19.56;70.78
36138;BME280;67787;50.074;21.904;2023-09-08T08:37:41;99913.07;;;19.63;70.66
36138;BME280;67787;50.074;21.904;2023-09-08T08:40:10;99916.40;;;19.69;70.61
36138;BME280;67787;50.074;21.904;2023-09-08T08:42:41;99918.83;;;19.74;70.57
36138;BME280;67787;50.074;21.904;2023-09-08T08:45:30;99916.88;;;19.77;70.54
36138;BME280;67787;50.074;21.904;2023-09-08T08:47:59;99917.83;;;19.83;70.76
36138;BME280;67787;50.074;21.904;2023-09-08T08:50:31;99916.47;;;19.91;70.87
36138;BME280;67787;50.074;21.904;2023-09-08T08:53:00;99914.86;;;19.99;70.56
36138;BME280;67787;50.074;21.904;2023-09-08T08:55:30;99913.52;;;20.03;70.31
36138;BME280;67787;50.074;21.904;2023-09-08T08:58:01;99905.55;;;20.05;70.28
36138;BME280;67787;50.074;21.904;2023-09-08T09:00:33;99908.31;;;20.08;70.22
36138;BME280;67787;50.074;21.904;2023-09-08T09:03:02;99905.08;;;20.08;70.16
36138;BME280;67787;50.074;21.904;2023-09-08T09:05:52;99901.12;;;20.12;70.28
36138;BME280;67787;50.074;21.904;2023-09-08T09:08:21;99899.70;;;20.17;70.33
36138;BME280;67787;50.074;21.904;2023-09-08T09:10:51;99900.80;;;20.24;70.57
36138;BME280;67787;50.074;21.904;2023-09-08T09:13:20;99894.48;;;20.39;70.52
36138;BME280;67787;50.074;21.904;2023-09-08T09:15:49;99898.42;;;20.48;70.29
36138;BME280;67787;50.074;21.904;2023-09-08T09:18:18;99894.14;;;20.51;70.36
36138;BME280;67787;50.074;21.904;2023-09-08T09:20:55;99890.11;;;20.55;70.19
36138;BME280;67787;50.074;21.904;2023-09-08T09:23:29;99889.11;;;20.57;70.21
36138;BME280;67787;50.074;21.904;2023-09-08T09:25:59;99888.13;;;20.62;69.99
36138;BME280;67787;50.074;21.904;2023-09-08T09:28:30;99883.75;;;20.68;70.12
36138;BME280;67787;50.074;21.904;2023-09-08T09:30:59;99879.44;;;20.74;70.18
36138;BME280;67787;50.074;21.904;2023-09-08T09:33:31;99876.34;;;20.81;70.04
36138;BME280;67787;50.074;21.904;2023-09-08T09:36:02;99875.27;;;20.83;70.04
36138;BME280;67787;50.074;21.904;2023-09-08T09:38:32;99879.31;;;20.86;70.09
36138;BME280;67787;50.074;21.904;2023-09-08T09:41:04;99877.20;;;20.90;70.05
36138;BME280;67787;50.074;21.904;2023-09-08T09:43:33;99875.15;;;20.94;69.97
36138;BME280;67787;50.074;21.904;2023-09-08T09:46:01;99874.27;;;21.02;69.88
36138;BME280;67787;50.074;21.904;2023-09-08T09:48:30;99869.14;;;21.09;69.77
36138;BME280;67787;50.074;21.904;2023-09-08T09:51:01;99877.42;;;21.15;69.68
36138;BME280;67787;50.074;21.904;2023-09-08T09:54:04;99871.34;;;21.23;69.65
36138;BME280;67787;50.074;21.904;2023-09-08T09:56:31;99868.67;;;21.26;69.71
36138;BME280;67787;50.074;21.904;2023-09-08T09:59:03;99869.55;;;21.28;69.43
36138;BME280;67787;50.074;21.904;2023-09-08T10:01:31;99866.02;;;21.31;69.33
36138;BME280;67787;50.074;21.904;2023-09-08T10:04:03;99869.38;;;21.36;69.24
36138;BME280;67787;50.074;21.904;2023-09-08T10:06:36;99862.46;;;21.40;69.19
36138;BME280;67787;50.074;21.904;2023-09-08T10:09:24;99865.52;;;21.46;69.18
36138;BME280;67787;50.074;21.904;2023-09-08T10:11:52;99862.17;;;21.55;69.32
36138;BME280;67787;50.074;21.904;2023-09-08T10:14:22;99860.23;;;21.63;69.34
36138;BME280;67787;50.074;21.904;2023-09-08T10:16:51;99858.99;;;21.67;68.73
36138;BME280;67787;50.074;21.904;2023-09-08T10:19:24;99858.21;;;21.67;68.60
36138;BME280;67787;50.074;21.904;2023-09-08T10:21:54;99856.92;;;21.74;69.09
36138;BME280;67787;50.074;21.904;2023-09-08T10:24:26;99851.15;;;21.79;68.96
36138;BME280;67787;50.074;21.904;2023-09-08T10:26:58;99852.26;;;21.81;68.77
36138;BME280;67787;50.074;21.904;2023-09-08T10:29:29;99851.13;;;21.80;68.73
36138;BME280;67787;50.074;21.904;2023-09-08T10:31:58;99854.10;;;21.79;68.40
36138;BME280;67787;50.074;21.904;2023-09-08T10:34:30;99853.52;;;21.78;68.55
36138;BME280;67787;50.074;21.904;2023-09-08T10:36:59;99849.45;;;21.75;68.49
36138;BME280;67787;50.074;21.904;2023-09-08T10:39:32;99848.81;;;21.76;68.44
36138;BME280;67787;50.074;21.904;2023-09-08T10:42:19;99848.67;;;21.82;68.27
36138;BME280;67787;50.074;21.904;2023-09-08T10:47:23;99837.90;;;21.90;68.40
36138;BME280;67787;50.074;21.904;2023-09-08T10:49:54;99834.66;;;21.97;68.19
36138;BME280;67787;50.074;21.904;2023-09-08T10:52:27;99831.70;;;22.02;67.93
36138;BME280;67787;50.074;21.904;2023-09-08T10:54:57;99829.65;;;22.05;67.93
36138;BME280;67787;50.074;21.904;2023-09-08T10:57:25;99826.33;;;22.06;67.98
36138;BME280;67787;50.074;21.904;2023-09-08T10:59:54;99829.70;;;22.14;68.10
36138;BME280;67787;50.074;21.904;2023-09-08T11:02:32;99825.10;;;22.19;67.79
36138;BME280;67787;50.074;21.904;2023-09-08T11:05:08;99823.42;;;22.22;67.75
36138;BME280;67787;50.074;21.904;2023-09-08T11:07:37;99821.04;;;22.21;67.44
36138;BME280;67787;50.074;21.904;2023-09-08T11:10:07;99822.00;;;22.22;67.53
36138;BME280;67787;50.074;21.904;2023-09-08T11:12:36;99820.31;;;22.23;67.39
36138;BME280;67787;50.074;21.904;2023-09-08T11:15:05;99821.52;;;22.24;67.59
36138;BME280;67787;50.074;21.904;2023-09-08T11:18:30;99815.23;;;22.31;67.64
36138;BME280;67787;50.074;21.904;2023-09-08T11:21:07;99813.73;;;22.43;67.63
36138;BME280;67787;50.074;21.904;2023-09-08T11:23:36;99812.84;;;22.51;67.30
36138;BME280;67787;50.074;21.904;2023-09-08T11:26:04;99810.13;;;22.56;67.49
36138;BME280;67787;50.074;21.904;2023-09-08T11:28:37;99811.12;;;22.59;67.20
36138;BME280;67787;50.074;21.904;2023-09-08T11:31:06;99804.77;;;22.60;67.00
36138;BME280;67787;50.074;21.904;2023-09-08T11:33:35;99807.52;;;22.60;67.04
36138;BME280;67787;50.074;21.904;2023-09-08T11:37:12;99810.41;;;22.59;66.76
36138;BME280;67787;50.074;21.904;2023-09-08T11:39:41;99810.33;;;22.59;66.91
36138;BME280;67787;50.074;21.904;2023-09-08T11:42:12;99806.52;;;22.59;66.75
36138;BME280;67787;50.074;21.904;2023-09-08T11:44:41;99802.10;;;22.62;66.49
36138;BME280;67787;50.074;21.904;2023-09-08T11:47:12;99799.38;;;22.64;66.50
36138;BME280;67787;50.074;21.904;2023-09-08T11:49:40;99798.24;;;22.67;66.49
36138;BME280;67787;50.074;21.904;2023-09-08T11:52:08;99795.15;;;22.71;66.44
36138;BME280;67787;50.074;21.904;2023-09-08T11:54:37;99793.49;;;22.71;66.52
36138;BME280;67787;50.074;21.904;2023-09-08T11:57:43;99791.86;;;22.74;66.44
36138;BME280;67787;50.074;21.904;2023-09-08T12:00:12;99788.39;;;22.78;66.29
36138;BME280;67787;50.074;21.904;2023-09-08T12:03:12;99784.35;;;22.78;66.15
36138;BME280;67787;50.074;21.904;2023-09-08T12:05:51;99782.18;;;22.80;66.28
36138;BME280;67787;50.074;21.904;2023-09-08T12:08:35;99774.57;;;22.85;66.13
36138;BME280;67787;50.074;21.904;2023-09-08T12:11:04;99771.65;;;22.87;65.90
36138;BME280;67787;50.074;21.904;2023-09-08T12:13:32;99770.63;;;22.86;65.83
36138;BME280;67787;50.074;21.904;2023-09-08T12:16:02;99769.17;;;22.88;65.86
36138;BME280;67787;50.074;21.904;2023-09-08T12:19:30;99768.11;;;22.91;65.66
36138;BME280;67787;50.074;21.904;2023-09-08T12:22:01;99762.86;;;22.89;65.42
36138;BME280;67787;50.074;21.904;2023-09-08T12:27:20;99763.13;;;22.89;65.60
36138;BME280;67787;50.074;21.904;2023-09-08T12:30:00;99758.89;;;22.89;65.36
36138;BME280;67787;50.074;21.904;2023-09-08T12:32:50;99760.95;;;22.92;65.38
36138;BME280;67787;50.074;21.904;2023-09-08T12:35:24;99756.60;;;22.95;65.53
36138;BME280;67787;50.074;21.904;2023-09-08T12:38:01;99755.23;;;22.99;65.24
36138;BME280;67787;50.074;21.904;2023-09-08T12:41:00;99751.70;;;23.05;65.32
36138;BME280;67787;50.074;21.904;2023-09-08T12:44:10;99748.42;;;23.10;64.90
36138;BME280;67787;50.074;21.904;2023-09-08T12:46:39;99751.84;;;23.13;64.91
36138;BME280;67787;50.074;21.904;2023-09-08T12:49:12;99753.05;;;23.15;65.20
36138;BME280;67787;50.074;21.904;2023-09-08T12:51:42;99748.23;;;23.19;65.05
36138;BME280;67787;50.074;21.904;2023-09-08T12:54:12;99740.98;;;23.21;64.75
36138;BME280;67787;50.074;21.904;2023-09-08T12:56:41;99737.13;;;23.20;64.68
36138;BME280;67787;50.074;21.904;2023-09-08T12:59:34;99741.37;;;23.21;64.75
36138;BME280;67787;50.074;21.904;2023-09-08T13:02:03;99742.59;;;23.25;64.89
36138;BME280;67787;50.074;21.904;2023-09-08T13:04:31;99738.97;;;23.30;64.59
36138;BME280;67787;50.074;21.904;2023-09-08T13:07:01;99740.06;;;23.34;64.82
36138;BME280;67787;50.074;21.904;2023-09-08T13:09:30;99735.64;;;23.37;64.46
36138;BME280;67787;50.074;21.904;2023-09-08T13:12:22;99734.05;;;23.36;64.55
36138;BME280;67787;50.074;21.904;2023-09-08T13:14:50;99729.76;;;23.39;64.53
36138;BME280;67787;50.074;21.904;2023-09-08T13:17:20;99733.89;;;23.39;64.37
36138;BME280;67787;50.074;21.904;2023-09-08T13:20:10;99727.77;;;23.39;64.08
36138;BME280;67787;50.074;21.904;2023-09-08T13:22:58;99723.05;;;23.36;64.21
36138;BME280;67787;50.074;21.904;2023-09-08T13:25:26;99723.98;;;23.34;64.14
36138;BME280;67787;50.074;21.904;2023-09-08T13:28:17;99720.98;;;23.35;63.95
36138;BME280;67787;50.074;21.904;2023-09-08T13:30:46;99723.23;;;23.34;63.89
36138;BME280;67787;50.074;21.904;2023-09-08T13:33:16;99718.74;;;23.37;63.96
36138;BME280;67787;50.074;21.904;2023-09-08T13:35:44;99717.93;;;23.41;63.72
36138;BME280;67787;50.074;21.904;2023-09-08T13:38:12;99712.71;;;23.41;63.61
36138;BME280;67787;50.074;21.904;2023-09-08T13:40:41;99714.66;;;23.40;63.50
36138;BME280;67787;50.074;21.904;2023-09-08T13:43:10;99714.90;;;23.39;63.69
36138;BME280;67787;50.074;21.904;2023-09-08T13:45:43;99710.77;;;23.44;63.63
36138;BME280;67787;50.074;21.904;2023-09-08T13:48:54;99707.90;;;23.45;63.31
36138;BME280;67787;50.074;21.904;2023-09-08T13:51:23;99704.15;;;23.46;63.42
36138;BME280;67787;50.074;21.904;2023-09-08T13:53:55;99703.34;;;23.47;63.20
36138;BME280;67787;50.074;21.904;2023-09-08T13:56:25;99702.11;;;23.46;63.19
36138;BME280;67787;50.074;21.904;2023-09-08T13:58:54;99697.90;;;23.45;63.09
36138;BME280;67787;50.074;21.904;2023-09-08T14:01:24;99696.65;;;23.46;62.75
36138;BME280;67787;50.074;21.904;2023-09-08T14:03:54;99693.09;;;23.46;62.84
36138;BME280;67787;50.074;21.904;2023-09-08T14:06:59;99693.05;;;23.46;63.10
36138;BME280;67787;50.074;21.904;2023-09-08T14:09:49;99688.66;;;23.48;62.68
36138;BME280;67787;50.074;21.904;2023-09-08T14:12:23;99690.08;;;23.50;62.77
36138;BME280;67787;50.074;21.904;2023-09-08T14:15:19;99689.92;;;23.53;62.73
36138;BME280;67787;50.074;21.904;2023-09-08T14:17:47;99689.87;;;23.55;62.62
36138;BME280;67787;50.074;21.904;2023-09-08T14:20:16;99686.86;;;23.55;62.72
36138;BME280;67787;50.074;21.904;2023-09-08T14:22:46;99690.48;;;23.55;62.44
36138;BME280;67787;50.074;21.904;2023-09-08T14:25:15;99686.44;;;23.55;62.56
36138;BME280;67787;50.074;21.904;2023-09-08T14:27:43;99684.94;;;23.57;62.52
36138;BME280;67787;50.074;21.904;2023-09-08T14:30:12;99682.46;;;23.57;62.60
36138;BME280;67787;50.074;21.904;2023-09-08T14:32:40;99681.52;;;23.56;62.43
36138;BME280;67787;50.074;21.904;2023-09-08T14:35:09;99679.59;;;23.55;62.35
36138;BME280;67787;50.074;21.904;2023-09-08T14:37:45;99681.33;;;23.54;62.27
36138;BME280;67787;50.074;21.904;2023-09-08T14:40:14;99677.33;;;23.54;62.25
36138;BME280;67787;50.074;21.904;2023-09-08T14:42:42;99677.01;;;23.52;62.04
36138;BME280;67787;50.074;21.904;2023-09-08T14:45:17;99673.75;;;23.51;62.13
36138;BME280;67787;50.074;21.904;2023-09-08T14:47:46;99671.88;;;23.48;62.03
36138;BME280;67787;50.074;21.904;2023-09-08T14:50:14;99669.08;;;23.44;61.93
36138;BME280;67787;50.074;21.904;2023-09-08T14:53:26;99664.11;;;23.39;61.89
36138;BME280;67787;50.074;21.904;2023-09-08T14:55:59;99664.55;;;23.38;61.87
36138;BME280;67787;50.074;21.904;2023-09-08T14:59:44;99661.45;;;23.35;61.71
36138;BME280;67787;50.074;21.904;2023-09-08T15:02:13;99659.22;;;23.34;61.76
36138;BME280;67787;50.074;21.904;2023-09-08T15:04:42;99654.53;;;23.33;61.62
36138;BME280;67787;50.074;21.904;2023-09-08T15:07:10;99656.88;;;23.34;61.51
36138;BME280;67787;50.074;21.904;2023-09-08T15:09:38;99657.69;;;23.33;61.65